sensor_id;sensor_type;location;lat;lon;timestamp;pressure;altitude;pressure_sealevel;temperature;humidity
44751;BME280;30477;48.224;11.470;2023-04-06T00:00:48;96279.09;;;1.12;57.62
44751;BME280;30477;48.224;11.470;2023-04-06T00:03:13;96281.47;;;1.15;57.79
44751;BME280;30477;48.224;11.470;2023-04-06T00:05:39;96281.06;;;1.07;57.89
44751;BME280;30477;48.224;11.470;2023-04-06T00:08:04;96284.06;;;0.98;57.97
44751;BME280;30477;48.224;11.470;2023-04-06T00:10:30;96287.06;;;0.89;58.34
44751;BME280;30477;48.224;11.470;2023-04-06T00:12:55;96274.75;;;0.79;58.51
44751;BME280;30477;48.224;11.470;2023-04-06T00:15:22;96279.56;;;0.86;58.86
44751;BME280;30477;48.224;11.470;2023-04-06T00:17:48;96273.56;;;0.87;58.92
44751;BME280;30477;48.224;11.470;2023-04-06T00:20:14;96277.63;;;0.91;58.82
44751;BME280;30477;48.224;11.470;2023-04-06T00:22:39;96273.34;;;0.74;58.74
44751;BME280;30477;48.224;11.470;2023-04-06T00:25:05;96275.66;;;0.61;59.02
44751;BME280;30477;48.224;11.470;2023-04-06T00:27:31;96275.97;;;0.55;59.02
44751;BME280;30477;48.224;11.470;2023-04-06T00:29:56;96273.84;;;0.46;59.38
44751;BME280;30477;48.224;11.470;2023-04-06T00:32:22;96279.56;;;0.51;59.64
44751;BME280;30477;48.224;11.470;2023-04-06T00:34:47;96274.31;;;0.54;59.68
44751;BME280;30477;48.224;11.470;2023-04-06T00:37:12;96275.97;;;0.55;59.37
44751;BME280;30477;48.224;11.470;2023-04-06T00:39:38;96276.44;;;0.44;59.67
44751;BME280;30477;48.224;11.470;2023-04-06T00:42:10;96272.22;;;0.45;59.89
44751;BME280;30477;48.224;11.470;2023-04-06T00:44:37;96272.66;;;0.53;59.99
44751;BME280;30477;48.224;11.470;2023-04-06T00:47:03;96275.88;;;0.56;60.02
44751;BME280;30477;48.224;11.470;2023-04-06T00:49:28;96272.09;;;0.65;60.00
44751;BME280;30477;48.224;11.470;2023-04-06T00:51:53;96277.19;;;0.65;59.80
44751;BME280;30477;48.224;11.470;2023-04-06T00:54:19;96272.38;;;0.59;59.98
44751;BME280;30477;48.224;11.470;2023-04-06T00:56:45;96273.53;;;0.52;59.72
44751;BME280;30477;48.224;11.470;2023-04-06T00:59:11;96267.41;;;0.56;59.89
44751;BME280;30477;48.224;11.470;2023-04-06T01:01:36;96267.41;;;0.56;60.05
44751;BME280;30477;48.224;11.470;2023-04-06T01:04:02;96267.34;;;0.57;59.77
44751;BME280;30477;48.224;11.470;2023-04-06T01:06:28;96269.53;;;0.65;59.92
44751;BME280;30477;48.224;11.470;2023-04-06T01:08:53;96275.88;;;0.56;59.57
44751;BME280;30477;48.224;11.470;2023-04-06T01:11:19;96271.16;;;0.66;59.43
44751;BME280;30477;48.224;11.470;2023-04-06T01:13:44;96274.16;;;0.57;59.19
44751;BME280;30477;48.224;11.470;2023-04-06T01:16:10;96274.38;;;0.52;59.60
44751;BME280;30477;48.224;11.470;2023-04-06T01:18:37;96264.28;;;0.51;59.37
44751;BME280;30477;48.224;11.470;2023-04-06T01:21:03;96266.81;;;0.51;59.30
44751;BME280;30477;48.224;11.470;2023-04-06T01:23:28;96257.28;;;0.54;58.95
44751;BME280;30477;48.224;11.470;2023-04-06T01:25:54;96262.59;;;0.50;59.05
44751;BME280;30477;48.224;11.470;2023-04-06T01:28:19;96264.13;;;0.54;58.91
44751;BME280;30477;48.224;11.470;2023-04-06T01:30:45;96254.38;;;0.45;58.80
44751;BME280;30477;48.224;11.470;2023-04-06T01:33:10;96260.19;;;0.29;58.91
44751;BME280;30477;48.224;11.470;2023-04-06T01:35:36;96261.84;;;0.30;59.19
44751;BME280;30477;48.224;11.470;2023-04-06T01:38:01;96259.00;;;0.36;59.37
44751;BME280;30477;48.224;11.470;2023-04-06T01:40:27;96255.88;;;0.49;59.23
44751;BME280;30477;48.224;11.470;2023-04-06T01:42:52;96251.84;;;0.45;58.97
44751;BME280;30477;48.224;11.470;2023-04-06T01:45:17;96247.63;;;0.44;58.96
44751;BME280;30477;48.224;11.470;2023-04-06T01:47:43;96251.22;;;0.39;58.69
44751;BME280;30477;48.224;11.470;2023-04-06T01:50:08;96249.13;;;0.48;58.57
44751;BME280;30477;48.224;11.470;2023-04-06T01:52:34;96254.09;;;0.51;58.53
44751;BME280;30477;48.224;11.470;2023-04-06T01:54:59;96243.91;;;0.51;58.15
44751;BME280;30477;48.224;11.470;2023-04-06T01:57:25;96245.53;;;0.52;58.23
44751;BME280;30477;48.224;11.470;2023-04-06T01:59:50;96249.81;;;0.51;57.98
44751;BME280;30477;48.224;11.470;2023-04-06T02:02:16;96244.78;;;0.50;57.70
44751;BME280;30477;48.224;11.470;2023-04-06T02:04:41;96250.69;;;0.50;57.78
44751;BME280;30477;48.224;11.470;2023-04-06T02:07:07;96248.00;;;0.53;57.55
44751;BME280;30477;48.224;11.470;2023-04-06T02:09:32;96247.25;;;0.51;57.14
44751;BME280;30477;48.224;11.470;2023-04-06T02:11:57;96241.41;;;0.49;57.16
44751;BME280;30477;48.224;11.470;2023-04-06T02:14:25;96241.41;;;0.49;57.61
44751;BME280;30477;48.224;11.470;2023-04-06T02:16:51;96244.56;;;0.54;57.18
44751;BME280;30477;48.224;11.470;2023-04-06T02:19:16;96241.13;;;0.55;56.90
44751;BME280;30477;48.224;11.470;2023-04-06T02:21:42;96242.84;;;0.55;56.70
44751;BME280;30477;48.224;11.470;2023-04-06T02:24:07;96239.56;;;0.53;56.97
44751;BME280;30477;48.224;11.470;2023-04-06T02:26:32;96241.50;;;0.48;56.78
44751;BME280;30477;48.224;11.470;2023-04-06T02:28:58;96236.56;;;0.45;56.86
44751;BME280;30477;48.224;11.470;2023-04-06T02:31:23;96243.06;;;0.50;57.07
44751;BME280;30477;48.224;11.470;2023-04-06T02:33:49;96238.34;;;0.60;56.89
44751;BME280;30477;48.224;11.470;2023-04-06T02:36:14;96232.22;;;0.47;56.73
44751;BME280;30477;48.224;11.470;2023-04-06T02:38:39;96239.53;;;0.35;56.89
44751;BME280;30477;48.224;11.470;2023-04-06T02:41:05;96241.47;;;0.30;57.20
44751;BME280;30477;48.224;11.470;2023-04-06T02:43:30;96242.06;;;0.35;57.53
44751;BME280;30477;48.224;11.470;2023-04-06T02:45:56;96232.13;;;0.31;57.23
44751;BME280;30477;48.224;11.470;2023-04-06T02:48:21;96233.38;;;0.22;57.32
44751;BME280;30477;48.224;11.470;2023-04-06T02:50:47;96231.75;;;0.21;57.31
44751;BME280;30477;48.224;11.470;2023-04-06T02:53:12;96231.34;;;0.11;57.44
44751;BME280;30477;48.224;11.470;2023-04-06T02:55:37;96233.34;;;0.05;57.40
44751;BME280;30477;48.224;11.470;2023-04-06T02:58:03;96234.88;;;0.09;57.79
44751;BME280;30477;48.224;11.470;2023-04-06T03:00:28;96234.47;;;0.16;57.52
44751;BME280;30477;48.224;11.470;2023-04-06T03:02:53;96229.19;;;0.21;57.58
44751;BME280;30477;48.224;11.470;2023-04-06T03:05:19;96230.59;;;0.27;57.51
44751;BME280;30477;48.224;11.470;2023-04-06T03:07:45;96229.91;;;0.23;57.37
44751;BME280;30477;48.224;11.470;2023-04-06T03:10:10;96227.69;;;0.17;57.64
44751;BME280;30477;48.224;11.470;2023-04-06T03:12:36;96232.78;;;0.17;57.49
44751;BME280;30477;48.224;11.470;2023-04-06T03:15:01;96231.75;;;0.21;57.40
44751;BME280;30477;48.224;11.470;2023-04-06T03:17:27;96230.91;;;0.20;57.20
44751;BME280;30477;48.224;11.470;2023-04-06T03:19:52;96232.16;;;0.12;57.24
44751;BME280;30477;48.224;11.470;2023-04-06T03:22:17;96230.88;;;0.03;57.22
44751;BME280;30477;48.224;11.470;2023-04-06T03:24:43;96229.09;;;0.05;57.55
44751;BME280;30477;48.224;11.470;2023-04-06T03:27:08;96231.69;;;0.04;57.86
44751;BME280;30477;48.224;11.470;2023-04-06T03:29:34;96226.75;;;0.01;57.42
44751;BME280;30477;48.224;11.470;2023-04-06T03:32:00;96228.16;;;0.06;57.79
44751;BME280;30477;48.224;11.470;2023-04-06T03:34:26;96231.00;;;0.19;58.14
44751;BME280;30477;48.224;11.470;2023-04-06T03:36:51;96238.06;;;0.12;57.68
44751;BME280;30477;48.224;11.470;2023-04-06T03:39:16;96233.13;;;0.09;57.81
44751;BME280;30477;48.224;11.470;2023-04-06T03:41:42;96242.34;;;0.12;57.75
44751;BME280;30477;48.224;11.470;2023-04-06T03:44:08;96244.75;;;0.15;58.02
44751;BME280;30477;48.224;11.470;2023-04-06T03:46:33;96246.09;;;0.22;58.03
44751;BME280;30477;48.224;11.470;2023-04-06T03:48:59;96246.16;;;0.20;57.96
44751;BME280;30477;48.224;11.470;2023-04-06T03:51:24;96243.50;;;0.24;57.75
44751;BME280;30477;48.224;11.470;2023-04-06T03:53:50;96246.69;;;0.10;57.85
44751;BME280;30477;48.224;11.470;2023-04-06T03:56:15;96249.22;;;0.10;57.86
44751;BME280;30477;48.224;11.470;2023-04-06T03:58:41;96243.25;;;0.11;57.71
44751;BME280;30477;48.224;11.470;2023-04-06T04:01:06;96248.53;;;0.06;57.64
44751;BME280;30477;48.224;11.470;2023-04-06T04:03:31;96253.28;;;0.14;57.89
44751;BME280;30477;48.224;11.470;2023-04-06T04:05:57;96254.84;;;0.16;57.65
44751;BME280;30477;48.224;11.470;2023-04-06T04:08:24;96250.19;;;0.07;57.65
44751;BME280;30477;48.224;11.470;2023-04-06T04:10:49;96257.88;;;0.06;57.83
44751;BME280;30477;48.224;11.470;2023-04-06T04:13:14;96255.88;;;0.12;57.82
44751;BME280;30477;48.224;11.470;2023-04-06T04:15:40;96259.19;;;0.14;57.98
44751;BME280;30477;48.224;11.470;2023-04-06T04:18:06;96258.06;;;0.20;57.68
44751;BME280;30477;48.224;11.470;2023-04-06T04:20:31;96261.66;;;0.16;57.87
44751;BME280;30477;48.224;11.470;2023-04-06T04:22:57;96258.16;;;0.18;57.71
44751;BME280;30477;48.224;11.470;2023-04-06T04:25:22;96266.47;;;0.22;57.85
44751;BME280;30477;48.224;11.470;2023-04-06T04:27:48;96258.31;;;0.15;57.59
44751;BME280;30477;48.224;11.470;2023-04-06T04:30:13;96259.13;;;0.16;57.75
44751;BME280;30477;48.224;11.470;2023-04-06T04:32:39;96263.44;;;0.14;57.87
44751;BME280;30477;48.224;11.470;2023-04-06T04:35:04;96266.44;;;0.05;57.62
44751;BME280;30477;48.224;11.470;2023-04-06T04:37:30;96264.78;;;0.04;57.78
44751;BME280;30477;48.224;11.470;2023-04-06T04:39:55;96263.13;;;0.03;58.01
44751;BME280;30477;48.224;11.470;2023-04-06T04:42:21;96265.00;;;-0.01;58.12
44751;BME280;30477;48.224;11.470;2023-04-06T04:44:47;96267.31;;;0.04;58.38
44751;BME280;30477;48.224;11.470;2023-04-06T04:47:12;96273.78;;;0.11;58.54
44751;BME280;30477;48.224;11.470;2023-04-06T04:49:37;96267.31;;;0.04;58.40
44751;BME280;30477;48.224;11.470;2023-04-06T04:52:03;96264.66;;;0.07;58.54
44751;BME280;30477;48.224;11.470;2023-04-06T04:54:28;96271.09;;;0.14;58.54
44751;BME280;30477;48.224;11.470;2023-04-06T04:56:54;96264.75;;;0.23;58.33
44751;BME280;30477;48.224;11.470;2023-04-06T04:59:19;96263.38;;;0.15;58.64
44751;BME280;30477;48.224;11.470;2023-04-06T05:01:44;96264.97;;;0.18;58.47
44751;BME280;30477;48.224;11.470;2023-04-06T05:04:10;96269.28;;;0.16;58.47
44751;BME280;30477;48.224;11.470;2023-04-06T05:06:36;96265.47;;;0.07;58.60
44751;BME280;30477;48.224;11.470;2023-04-06T05:09:01;96269.91;;;0.02;58.36
44751;BME280;30477;48.224;11.470;2023-04-06T05:11:26;96265.97;;;-0.04;58.70
44751;BME280;30477;48.224;11.470;2023-04-06T05:13:53;96270.63;;;0.06;58.86
44751;BME280;30477;48.224;11.470;2023-04-06T05:16:18;96267.50;;;0.18;58.95
44751;BME280;30477;48.224;11.470;2023-04-06T05:18:44;96266.66;;;0.36;58.67
44751;BME280;30477;48.224;11.470;2023-04-06T05:21:11;96275.97;;;0.55;58.70
44751;BME280;30477;48.224;11.470;2023-04-06T05:23:36;96266.53;;;0.57;58.52
44751;BME280;30477;48.224;11.470;2023-04-06T05:26:01;96265.16;;;0.67;58.70
44751;BME280;30477;48.224;11.470;2023-04-06T05:28:27;96274.09;;;0.76;58.58
44751;BME280;30477;48.224;11.470;2023-04-06T05:30:52;96273.03;;;0.97;58.19
44751;BME280;30477;48.224;11.470;2023-04-06T05:33:18;96269.91;;;1.26;58.42
44751;BME280;30477;48.224;11.470;2023-04-06T05:35:43;96274.41;;;1.38;57.84
44751;BME280;30477;48.224;11.470;2023-04-06T05:38:09;96278.44;;;1.42;58.00
44751;BME280;30477;48.224;11.470;2023-04-06T05:40:37;96273.19;;;1.45;57.79
44751;BME280;30477;48.224;11.470;2023-04-06T05:43:05;96273.69;;;1.52;57.63
44751;BME280;30477;48.224;11.470;2023-04-06T05:45:31;96268.19;;;1.59;57.49
44751;BME280;30477;48.224;11.470;2023-04-06T05:47:56;96265.50;;;1.78;57.45
44751;BME280;30477;48.224;11.470;2023-04-06T05:50:22;96271.53;;;1.93;56.84
44751;BME280;30477;48.224;11.470;2023-04-06T05:52:47;96278.03;;;2.15;56.98
44751;BME280;30477;48.224;11.470;2023-04-06T05:55:13;96275.25;;;2.50;56.55
44751;BME280;30477;48.224;11.470;2023-04-06T05:57:38;96271.91;;;2.79;56.07
44751;BME280;30477;48.224;11.470;2023-04-06T06:00:05;96276.53;;;3.03;55.60
44751;BME280;30477;48.224;11.470;2023-04-06T06:02:31;96269.88;;;3.15;54.84
44751;BME280;30477;48.224;11.470;2023-04-06T06:04:57;96267.16;;;3.32;54.74
44751;BME280;30477;48.224;11.470;2023-04-06T06:07:23;96278.13;;;3.49;54.05
44751;BME280;30477;48.224;11.470;2023-04-06T06:09:48;96271.63;;;3.29;53.03
44751;BME280;30477;48.224;11.470;2023-04-06T06:12:14;96268.34;;;3.27;53.22
44751;BME280;30477;48.224;11.470;2023-04-06T06:14:40;96275.28;;;3.24;52.99
44751;BME280;30477;48.224;11.470;2023-04-06T06:17:05;96272.34;;;3.31;52.69
44751;BME280;30477;48.224;11.470;2023-04-06T06:19:30;96267.72;;;3.52;52.51
44751;BME280;30477;48.224;11.470;2023-04-06T06:21:56;96261.84;;;3.78;52.30
44751;BME280;30477;48.224;11.470;2023-04-06T06:24:21;96271.22;;;3.92;51.83
44751;BME280;30477;48.224;11.470;2023-04-06T06:26:47;96269.72;;;4.17;51.42
44751;BME280;30477;48.224;11.470;2023-04-06T06:29:14;96266.91;;;4.34;50.83
44751;BME280;30477;48.224;11.470;2023-04-06T06:31:39;96271.47;;;4.43;50.33
44751;BME280;30477;48.224;11.470;2023-04-06T06:34:05;96275.13;;;4.54;50.21
44751;BME280;30477;48.224;11.470;2023-04-06T06:36:31;96273.81;;;4.74;49.91
44751;BME280;30477;48.224;11.470;2023-04-06T06:38:57;96266.16;;;4.99;49.68
44751;BME280;30477;48.224;11.470;2023-04-06T06:41:25;96264.56;;;5.24;49.29
44751;BME280;30477;48.224;11.470;2023-04-06T06:43:51;96273.06;;;5.50;48.90
44751;BME280;30477;48.224;11.470;2023-04-06T06:46:16;96268.94;;;5.73;48.55
44751;BME280;30477;48.224;11.470;2023-04-06T06:48:42;96272.09;;;5.89;48.26
44751;BME280;30477;48.224;11.470;2023-04-06T06:51:07;96270.75;;;6.09;48.15
44751;BME280;30477;48.224;11.470;2023-04-06T06:53:34;96268.03;;;6.24;47.37
44751;BME280;30477;48.224;11.470;2023-04-06T06:56:00;96264.59;;;6.36;47.84
44751;BME280;30477;48.224;11.470;2023-04-06T06:58:26;96262.03;;;6.60;47.65
44751;BME280;30477;48.224;11.470;2023-04-06T07:00:56;96268.03;;;6.48;47.03
44751;BME280;30477;48.224;11.470;2023-04-06T07:03:22;96267.84;;;6.86;47.43
44751;BME280;30477;48.224;11.470;2023-04-06T07:05:48;96273.25;;;6.95;46.24
44751;BME280;30477;48.224;11.470;2023-04-06T07:08:21;96266.81;;;6.89;45.79
44751;BME280;30477;48.224;11.470;2023-04-06T07:10:47;96272.34;;;6.96;45.61
44751;BME280;30477;48.224;11.470;2023-04-06T07:13:14;96274.97;;;7.18;46.15
44751;BME280;30477;48.224;11.470;2023-04-06T07:15:44;96278.25;;;7.31;46.13
44751;BME280;30477;48.224;11.470;2023-04-06T07:18:09;96277.41;;;6.84;45.32
44751;BME280;30477;48.224;11.470;2023-04-06T07:20:35;96279.06;;;6.61;45.82
44751;BME280;30477;48.224;11.470;2023-04-06T07:23:00;96276.75;;;6.58;46.77
44751;BME280;30477;48.224;11.470;2023-04-06T07:25:26;96275.56;;;6.86;47.28
44751;BME280;30477;48.224;11.470;2023-04-06T07:27:51;96274.81;;;6.73;46.99
44751;BME280;30477;48.224;11.470;2023-04-06T07:30:16;96279.31;;;6.58;46.99
44751;BME280;30477;48.224;11.470;2023-04-06T07:32:43;96282.31;;;6.52;47.69
44751;BME280;30477;48.224;11.470;2023-04-06T07:35:08;96285.56;;;6.78;48.09
44751;BME280;30477;48.224;11.470;2023-04-06T07:37:34;96282.97;;;6.91;47.51
44751;BME280;30477;48.224;11.470;2023-04-06T07:39:59;96275.19;;;7.26;47.90
44751;BME280;30477;48.224;11.470;2023-04-06T07:42:24;96282.16;;;7.37;47.09
44751;BME280;30477;48.224;11.470;2023-04-06T07:44:50;96281.06;;;7.28;46.96
44751;BME280;30477;48.224;11.470;2023-04-06T07:47:15;96274.78;;;7.44;47.11
44751;BME280;30477;48.224;11.470;2023-04-06T07:49:41;96271.25;;;7.79;47.08
44751;BME280;30477;48.224;11.470;2023-04-06T07:52:06;96278.16;;;7.89;46.71
44751;BME280;30477;48.224;11.470;2023-04-06T07:54:31;96278.97;;;8.12;46.20
44751;BME280;30477;48.224;11.470;2023-04-06T07:56:57;96272.44;;;7.97;45.31
44751;BME280;30477;48.224;11.470;2023-04-06T07:59:22;96270.22;;;7.92;45.78
44751;BME280;30477;48.224;11.470;2023-04-06T08:01:47;96277.91;;;8.04;45.74
44751;BME280;30477;48.224;11.470;2023-04-06T08:04:13;96271.22;;;8.12;45.20
44751;BME280;30477;48.224;11.470;2023-04-06T08:06:39;96274.03;;;8.21;44.72
44751;BME280;30477;48.224;11.470;2023-04-06T08:09:06;96279.59;;;8.60;44.44
44751;BME280;30477;48.224;11.470;2023-04-06T08:11:31;96269.28;;;8.60;44.02
44751;BME280;30477;48.224;11.470;2023-04-06T08:13:56;96269.13;;;8.72;43.73
44751;BME280;30477;48.224;11.470;2023-04-06T08:16:23;96269.63;;;8.87;43.82
44751;BME280;30477;48.224;11.470;2023-04-06T08:18:48;96277.03;;;9.13;43.81
44751;BME280;30477;48.224;11.470;2023-04-06T08:21:14;96275.97;;;9.16;43.33
44751;BME280;30477;48.224;11.470;2023-04-06T08:23:39;96278.84;;;9.01;43.38
44751;BME280;30477;48.224;11.470;2023-04-06T08:26:05;96272.47;;;8.84;43.71
44751;BME280;30477;48.224;11.470;2023-04-06T08:28:30;96280.94;;;9.28;43.77
44751;BME280;30477;48.224;11.470;2023-04-06T08:30:56;96279.25;;;9.69;42.49
44751;BME280;30477;48.224;11.470;2023-04-06T08:33:21;96282.06;;;9.87;41.68
44751;BME280;30477;48.224;11.470;2023-04-06T08:35:46;96272.22;;;9.81;40.94
44751;BME280;30477;48.224;11.470;2023-04-06T08:38:12;96268.56;;;9.84;41.19
44751;BME280;30477;48.224;11.470;2023-04-06T08:40:38;96266.88;;;10.04;40.16
44751;BME280;30477;48.224;11.470;2023-04-06T08:43:06;96269.16;;;10.38;40.50
44751;BME280;30477;48.224;11.470;2023-04-06T08:45:33;96265.22;;;11.02;40.06
44751;BME280;30477;48.224;11.470;2023-04-06T08:48:00;96260.38;;;11.55;39.11
44751;BME280;30477;48.224;11.470;2023-04-06T08:50:28;96256.16;;;11.92;38.16
44751;BME280;30477;48.224;11.470;2023-04-06T08:52:55;96250.78;;;12.31;37.54
44751;BME280;30477;48.224;11.470;2023-04-06T08:55:21;96261.22;;;12.21;36.31
44751;BME280;30477;48.224;11.470;2023-04-06T08:57:47;96253.47;;;12.39;35.63
44751;BME280;30477;48.224;11.470;2023-04-06T09:00:14;96257.53;;;12.59;35.42
44751;BME280;30477;48.224;11.470;2023-04-06T09:02:42;96259.78;;;12.90;34.91
44751;BME280;30477;48.224;11.470;2023-04-06T09:05:09;96257.16;;;12.72;33.96
44751;BME280;30477;48.224;11.470;2023-04-06T09:07:37;96259.41;;;12.85;33.71
44751;BME280;30477;48.224;11.470;2023-04-06T09:10:04;96249.41;;;13.16;33.69
44751;BME280;30477;48.224;11.470;2023-04-06T09:12:31;96251.09;;;13.44;33.47
44751;BME280;30477;48.224;11.470;2023-04-06T09:14:57;96252.66;;;13.63;32.89
44751;BME280;30477;48.224;11.470;2023-04-06T09:17:28;96245.75;;;13.71;32.27
44751;BME280;30477;48.224;11.470;2023-04-06T09:19:54;96248.91;;;13.57;32.58
44751;BME280;30477;48.224;11.470;2023-04-06T09:22:20;96252.00;;;13.60;32.48
44751;BME280;30477;48.224;11.470;2023-04-06T09:24:50;96249.44;;;13.95;32.28
44751;BME280;30477;48.224;11.470;2023-04-06T09:27:16;96255.53;;;13.77;31.27
44751;BME280;30477;48.224;11.470;2023-04-06T09:29:43;96250.75;;;13.38;31.30
44751;BME280;30477;48.224;11.470;2023-04-06T09:32:09;96254.63;;;13.34;31.72
44751;BME280;30477;48.224;11.470;2023-04-06T09:34:41;96249.88;;;13.12;31.01
44751;BME280;30477;48.224;11.470;2023-04-06T09:37:17;96250.13;;;12.83;31.15
44751;BME280;30477;48.224;11.470;2023-04-06T09:39:44;96242.25;;;13.10;30.79
44751;BME280;30477;48.224;11.470;2023-04-06T09:42:11;96244.88;;;13.36;30.74
44751;BME280;30477;48.224;11.470;2023-04-06T09:44:36;96242.88;;;13.30;30.05
44751;BME280;30477;48.224;11.470;2023-04-06T09:47:06;96235.47;;;13.17;30.07
44751;BME280;30477;48.224;11.470;2023-04-06T09:49:33;96240.88;;;13.42;29.64
44751;BME280;30477;48.224;11.470;2023-04-06T09:52:02;96240.34;;;13.38;29.23
44751;BME280;30477;48.224;11.470;2023-04-06T09:54:29;96239.59;;;13.28;29.57
44751;BME280;30477;48.224;11.470;2023-04-06T09:59:55;96240.19;;;12.78;29.01
44751;BME280;30477;48.224;11.470;2023-04-06T10:02:37;96237.81;;;12.85;29.77
44751;BME280;30477;48.224;11.470;2023-04-06T10:05:22;96225.09;;;12.99;29.23
44751;BME280;30477;48.224;11.470;2023-04-06T10:07:54;96229.34;;;13.00;30.31
44751;BME280;30477;48.224;11.470;2023-04-06T10:10:21;96228.16;;;12.95;29.47
44751;BME280;30477;48.224;11.470;2023-04-06T10:12:47;96229.94;;;12.94;30.00
44751;BME280;30477;48.224;11.470;2023-04-06T10:15:14;96228.09;;;12.51;29.89
44751;BME280;30477;48.224;11.470;2023-04-06T10:17:39;96222.72;;;12.16;29.84
44751;BME280;30477;48.224;11.470;2023-04-06T10:25:29;96223.84;;;12.32;30.29
44751;BME280;30477;48.224;11.470;2023-04-06T10:28:08;96217.72;;;12.33;29.88
44751;BME280;30477;48.224;11.470;2023-04-06T10:30:35;96221.09;;;12.51;29.88
44751;BME280;30477;48.224;11.470;2023-04-06T10:33:00;96219.25;;;12.62;29.84
44751;BME280;30477;48.224;11.470;2023-04-06T10:35:37;96210.00;;;12.41;29.35
44751;BME280;30477;48.224;11.470;2023-04-06T10:38:04;96206.75;;;12.39;29.08
44751;BME280;30477;48.224;11.470;2023-04-06T10:40:30;96215.88;;;11.88;28.64
44751;BME280;30477;48.224;11.470;2023-04-06T10:43:12;96210.91;;;12.04;29.52
44751;BME280;30477;48.224;11.470;2023-04-06T10:45:39;96208.09;;;12.43;29.44
44751;BME280;30477;48.224;11.470;2023-04-06T10:48:18;96206.75;;;12.39;28.82
44751;BME280;30477;48.224;11.470;2023-04-06T10:50:46;96200.63;;;12.12;28.99
44751;BME280;30477;48.224;11.470;2023-04-06T10:53:19;96203.13;;;12.04;29.50
44751;BME280;30477;48.224;11.470;2023-04-06T10:55:46;96201.56;;;12.39;29.50
44751;BME280;30477;48.224;11.470;2023-04-06T10:58:12;96203.31;;;12.56;29.36
44751;BME280;30477;48.224;11.470;2023-04-06T11:00:44;96200.13;;;12.63;29.24
44751;BME280;30477;48.224;11.470;2023-04-06T11:03:10;96197.44;;;12.72;28.95
44751;BME280;30477;48.224;11.470;2023-04-06T11:05:35;96195.59;;;12.65;28.66
44751;BME280;30477;48.224;11.470;2023-04-06T11:08:01;96185.09;;;12.66;29.33
44751;BME280;30477;48.224;11.470;2023-04-06T11:10:26;96181.53;;;12.93;30.18
44751;BME280;30477;48.224;11.470;2023-04-06T11:12:56;96180.09;;;13.17;29.91
44751;BME280;30477;48.224;11.470;2023-04-06T11:15:21;96181.50;;;12.85;29.04
44751;BME280;30477;48.224;11.470;2023-04-06T11:17:47;96175.38;;;12.94;28.51
44751;BME280;30477;48.224;11.470;2023-04-06T11:20:14;96168.34;;;13.13;27.56
44751;BME280;30477;48.224;11.470;2023-04-06T11:22:52;96164.66;;;12.97;27.70
44751;BME280;30477;48.224;11.470;2023-04-06T11:25:17;96167.31;;;13.06;28.44
44751;BME280;30477;48.224;11.470;2023-04-06T11:27:45;96160.19;;;13.08;28.59
44751;BME280;30477;48.224;11.470;2023-04-06T11:30:11;96158.28;;;12.66;28.66
44751;BME280;30477;48.224;11.470;2023-04-06T11:32:41;96151.75;;;12.62;28.87
44751;BME280;30477;48.224;11.470;2023-04-06T11:35:10;96156.97;;;12.26;28.88
44751;BME280;30477;48.224;11.470;2023-04-06T11:37:35;96158.16;;;11.86;29.08
44751;BME280;30477;48.224;11.470;2023-04-06T11:40:01;96161.78;;;11.65;29.29
44751;BME280;30477;48.224;11.470;2023-04-06T11:42:28;96155.41;;;11.32;29.43
44751;BME280;30477;48.224;11.470;2023-04-06T11:44:55;96159.28;;;11.08;29.96
44751;BME280;30477;48.224;11.470;2023-04-06T11:47:32;96155.09;;;11.07;30.58
44751;BME280;30477;48.224;11.470;2023-04-06T11:50:08;96152.31;;;11.18;30.20
44751;BME280;30477;48.224;11.470;2023-04-06T11:52:34;96153.88;;;11.39;30.67
44751;BME280;30477;48.224;11.470;2023-04-06T11:55:11;96146.78;;;11.41;30.33
44751;BME280;30477;48.224;11.470;2023-04-06T11:57:37;96140.47;;;11.71;30.71
44751;BME280;30477;48.224;11.470;2023-04-06T12:00:02;96138.66;;;11.82;30.57
44751;BME280;30477;48.224;11.470;2023-04-06T12:02:28;96139.44;;;11.64;30.77
44751;BME280;30477;48.224;11.470;2023-04-06T12:04:53;96145.97;;;11.68;30.99
44751;BME280;30477;48.224;11.470;2023-04-06T12:07:18;96141.63;;;11.31;29.86
44751;BME280;30477;48.224;11.470;2023-04-06T12:09:44;96144.84;;;11.06;30.49
44751;BME280;30477;48.224;11.470;2023-04-06T12:12:10;96138.63;;;10.79;30.74
44751;BME280;30477;48.224;11.470;2023-04-06T12:14:35;96134.56;;;10.86;31.55
44751;BME280;30477;48.224;11.470;2023-04-06T12:17:01;96138.88;;;11.05;32.02
44751;BME280;30477;48.224;11.470;2023-04-06T12:19:26;96132.00;;;11.14;31.47
44751;BME280;30477;48.224;11.470;2023-04-06T12:21:52;96146.53;;;10.87;31.29
44751;BME280;30477;48.224;11.470;2023-04-06T12:24:19;96130.19;;;10.87;31.66
44751;BME280;30477;48.224;11.470;2023-04-06T12:26:45;96131.47;;;10.53;31.18
44751;BME280;30477;48.224;11.470;2023-04-06T12:29:10;96128.22;;;10.42;31.32
44751;BME280;30477;48.224;11.470;2023-04-06T12:31:38;96131.88;;;10.59;31.86
44751;BME280;30477;48.224;11.470;2023-04-06T12:34:05;96136.09;;;10.60;31.57
44751;BME280;30477;48.224;11.470;2023-04-06T12:36:31;96132.13;;;10.55;31.34
44751;BME280;30477;48.224;11.470;2023-04-06T12:38:57;96127.09;;;10.64;31.18
44751;BME280;30477;48.224;11.470;2023-04-06T12:41:22;96124.88;;;10.79;31.12
44751;BME280;30477;48.224;11.470;2023-04-06T12:43:48;96116.25;;;10.97;31.20
44751;BME280;30477;48.224;11.470;2023-04-06T12:46:15;96111.59;;;11.11;31.35
44751;BME280;30477;48.224;11.470;2023-04-06T12:48:40;96113.44;;;11.18;30.44
44751;BME280;30477;48.224;11.470;2023-04-06T12:51:06;96109.69;;;11.13;29.94
44751;BME280;30477;48.224;11.470;2023-04-06T12:53:32;96109.94;;;11.10;30.09
44751;BME280;30477;48.224;11.470;2023-04-06T12:55:59;96112.88;;;11.25;30.23
44751;BME280;30477;48.224;11.470;2023-04-06T12:58:24;96115.16;;;11.37;30.07
44751;BME280;30477;48.224;11.470;2023-04-06T13:00:57;96103.59;;;11.32;30.25